Il s'agit d'un problème de communication. Allez directement sur le site Meteoalarm : www.meteoalarm.eu et vérifier les avertissements météorologiques..



Thunder radar more information blitzortung!


Rain radar more information rain snow radar



Rapports METAR proximité

   
EHVK - Volkel Rnlafb, Netherlands
Distance: SO 18 km
Mise à jour: 11-08-2022 23:25
Claires  
Claires  
   Vent: NNE 5.6 km/h
Vent: NNE 5.6 km/h
Température: 22°C
Point de rosée: 10°C
Humidité: 47%
Baromètre: 1019 hPa
Nuageux: Claires
visibilité: More than 10 km
Détails des nuages: Claires
EHVK 112125Z AUTO 02003KT 9999 NCD 22/10 Q1019 BLU
EDLV - Niederrhein, Germany
Distance: SE 25 km
Mise à jour: 11-08-2022 23:20
Claires  
Claires  
   Vent: NE 5.6 km/h
Vent: NE 5.6 km/h
Température: 24°C
Point de rosée: 10°C
Humidité: 41%
Baromètre: 1020 hPa
visibilité: More than 10 km
Détails des nuages: Claires
EDLV 112120Z 05003KT 020V110 CAVOK 24/10 Q1020
EHDL - Deelen Rnlafb, Netherlands
Distance: N 35 km
Mise à jour: 11-08-2022 23:25
Claires  
Claires  
   Vent: NNE 14.8 km/h
Vent: NNE 14.8 km/h
Température: 21°C
Point de rosée: 10°C
Humidité: 50%
Baromètre: 1020 hPa
Nuageux: Claires
visibilité: More than 10 km
Détails des nuages: Claires
EHDL 112125Z AUTO 03008KT 340V060 9999 NCD 21/10 Q1020 BLU
EHEH - Eindhoven Rnlafb, Netherlands
Distance: SO 48 km
Mise à jour: 11-08-2022 23:25
Claires  
Claires  
   Vent: NNE 9.3 km/h
Vent: NNE 9.3 km/h
Température: 22°C
Point de rosée: 10°C
Humidité: 47%
Baromètre: 1019 hPa
Nuageux: Claires
visibilité: More than 10 km
Détails des nuages: Claires
EHEH 112125Z AUTO 02005KT 9999 NCD 22/10 Q1019 BLU NOSIG
EHGR - Gilze-Rijen Rnla, Netherlands
Distance: OSO 70 km
Mise à jour: 11-08-2022 23:25
Claires  
Claires  
   Vent: NNE 9.3 km/h
Vent: NNE 9.3 km/h
Température: 21°C
Point de rosée: 10°C
Humidité: 50%
Baromètre: 1019 hPa
Nuageux: Claires
visibilité: More than 10 km
Détails des nuages: Claires
EHGR 112125Z AUTO 02005KT 350V050 9999 NCD 21/10 Q1019 BLU
EBBL - Kleine-Brogel(Ba, Belgium
Distance: SSO 71 km
Mise à jour: 11-08-2022 23:25
Claires  
Claires  
   Vent: NE 7.4 km/h
Vent: NE 7.4 km/h
Température: 22°C
Point de rosée: 10°C
Humidité: 47%
Baromètre: 1019 hPa
Nuageux: Claires
visibilité: More than 10 km
Détails des nuages: Claires
EBBL 112125Z AUTO 04004KT 9999 NCD 22/10 Q1019 BLU

Script développé par  Saratoga-weather.org Adapté pour le modèle par  Weerstation Leuven

Vous trouverez notre info météo Également à:

Weather Underground

Équipement que nous utilisons:

Station de Météo
Davis VP2

Programme Météo
Meteobridge

Ordinateur Météo
Apple Imac

Davis VP2

Meteobridge

Apple Imac